Terminal Aerodrome Forecast
Issued by NWS Cleveland, OH

Home | Current Version | Previous Version | Text Only | Print | Product List | Glossary Off
Versions: 1 2 3 4 5 6 7 8 9 10 11 12 13 14 15 16 17 18 19 20 21

000
FTUS41 KCLE 162000 AAA
TAFERI
TAF AMD
KERI 162023Z 1620/1718 18010KT 6SM -RA BR SCT015 OVC025
      TEMPO 1620/1623 4SM -SHRA OVC015
     FM162300 21010KT 4SM -SHRA BR OVC012
     FM170500 23012G20KT 6SM BR OVC010
     FM171300 25015G25KT 6SM -SN OVC012=

USA.gov is the U.S. government's official web portal to all federal, state and local government web resources and services.